createdAt,value
2018-02-09T00:00:45.245Z,81.70
2018-02-09T00:03:13.048Z,81.40
2018-02-09T00:05:40.318Z,81.70
2018-02-09T00:08:07.263Z,81.70
2018-02-09T00:10:35.379Z,81.50
2018-02-09T00:13:01.854Z,81.70
2018-02-09T00:17:58.308Z,82.00
2018-02-09T00:20:24.832Z,82.30
2018-02-09T00:22:52.236Z,82.80
2018-02-09T00:25:22.273Z,82.70
2018-02-09T00:27:50.037Z,82.50
2018-02-09T00:30:20.226Z,82.70
2018-02-09T00:32:46.738Z,83.20
2018-02-09T00:35:13.792Z,83.30
2018-02-09T00:37:40.467Z,83.30
2018-02-09T00:40:07.247Z,83.00
2018-02-09T00:42:34.167Z,82.80
2018-02-09T00:45:01.000Z,82.90
2018-02-09T00:47:27.533Z,82.80
2018-02-09T00:49:54.306Z,82.70
2018-02-09T00:54:49.231Z,83.10
2018-02-09T00:57:16.137Z,83.60
2018-02-09T00:59:42.981Z,83.60
2018-02-09T01:02:09.823Z,83.50
2018-02-09T01:04:37.520Z,83.70
2018-02-09T01:07:04.586Z,83.60
2018-02-09T01:09:31.824Z,84.10
2018-02-09T01:11:58.577Z,84.10
2018-02-09T01:14:25.508Z,84.10
2018-02-09T01:16:52.048Z,84.00
2018-02-09T01:19:18.944Z,84.10
2018-02-09T01:21:46.068Z,84.10
2018-02-09T01:24:12.588Z,83.90
2018-02-09T01:26:39.352Z,84.10
2018-02-09T01:29:06.040Z,84.30
2018-02-09T01:31:33.871Z,84.30
2018-02-09T01:34:00.557Z,84.60
2018-02-09T01:36:28.820Z,84.80
2018-02-09T01:38:55.779Z,84.70
2018-02-09T01:41:22.618Z,84.40
2018-02-09T01:43:49.249Z,84.40
2018-02-09T01:46:16.603Z,84.10
2018-02-09T01:48:43.449Z,83.90
2018-02-09T01:51:09.999Z,83.90
2018-02-09T01:53:36.534Z,84.00
2018-02-09T01:56:03.465Z,83.60
2018-02-09T01:58:30.213Z,83.50
2018-02-09T02:00:57.053Z,83.50
2018-02-09T02:03:23.896Z,83.10
2018-02-09T02:05:50.727Z,83.00
2018-02-09T02:08:17.640Z,83.30
2018-02-09T02:10:45.457Z,82.90
2018-02-09T02:13:13.104Z,83.50
2018-02-09T02:15:39.645Z,84.00
2018-02-09T02:18:06.170Z,83.60
2018-02-09T02:20:33.075Z,83.20
2018-02-09T02:23:00.078Z,83.20
2018-02-09T02:25:26.490Z,83.10
2018-02-09T02:27:53.563Z,83.10
2018-02-09T02:30:22.121Z,83.30
2018-02-09T02:32:49.751Z,83.10
2018-02-09T02:35:16.131Z,83.30
2018-02-09T02:37:43.053Z,83.10
2018-02-09T02:40:10.001Z,83.30
2018-02-09T02:42:37.056Z,83.60
2018-02-09T02:45:05.550Z,83.50
2018-02-09T02:47:32.903Z,83.30
2018-02-09T02:49:59.428Z,83.10
2018-02-09T02:52:25.978Z,83.50
2018-02-09T02:54:52.892Z,83.40
2018-02-09T02:57:19.455Z,83.60
2018-02-09T02:59:46.856Z,83.70
2018-02-09T03:02:13.424Z,83.80
2018-02-09T03:04:39.883Z,83.90
2018-02-09T03:07:06.401Z,83.90
2018-02-09T03:09:33.041Z,83.70
2018-02-09T03:11:59.476Z,83.50
2018-02-09T03:14:26.918Z,83.90
2018-02-09T03:16:53.539Z,82.90
2018-02-09T03:19:20.372Z,82.50
2018-02-09T03:21:46.941Z,82.80
2018-02-09T03:24:14.598Z,82.60
2018-02-09T03:26:41.233Z,83.00
2018-02-09T03:29:08.308Z,83.00
2018-02-09T03:31:34.831Z,83.00
2018-02-09T03:34:01.477Z,83.30
2018-02-09T03:36:29.147Z,83.00
2018-02-09T03:38:56.060Z,83.50
2018-02-09T03:41:25.881Z,83.40
2018-02-09T03:43:52.721Z,83.30
2018-02-09T03:46:19.300Z,83.20
2018-02-09T03:48:46.126Z,83.00
2018-02-09T03:51:13.163Z,83.00
2018-02-09T03:53:43.775Z,82.80
2018-02-09T03:56:10.928Z,83.00
2018-02-09T03:58:37.992Z,83.00
2018-02-09T04:01:05.235Z,83.10
2018-02-09T04:03:32.097Z,83.10
2018-02-09T04:05:58.919Z,82.80
2018-02-09T04:08:25.769Z,83.00
2018-02-09T04:10:54.568Z,83.10
2018-02-09T04:13:20.973Z,83.00
2018-02-09T04:15:49.655Z,83.10
2018-02-09T04:18:16.051Z,82.80
2018-02-09T04:20:43.155Z,83.10
2018-02-09T04:23:10.928Z,83.00
2018-02-09T04:25:38.876Z,82.90
2018-02-09T04:28:06.060Z,82.50
2018-02-09T04:30:32.595Z,82.70
2018-02-09T04:32:59.093Z,83.00
2018-02-09T04:35:25.667Z,83.30
2018-02-09T04:37:52.257Z,83.30
2018-02-09T04:40:19.922Z,83.50
2018-02-09T04:42:46.451Z,83.30
2018-02-09T04:45:13.224Z,83.90
2018-02-09T04:47:40.564Z,83.90
2018-02-09T04:50:07.080Z,83.90
2018-02-09T04:52:34.150Z,83.90
2018-02-09T04:55:01.688Z,84.10
2018-02-09T04:57:28.125Z,84.10
2018-02-09T04:59:54.723Z,84.70
2018-02-09T05:02:21.504Z,84.60
2018-02-09T05:04:48.400Z,84.90
2018-02-09T05:07:14.888Z,85.10
2018-02-09T05:09:41.640Z,85.20
2018-02-09T05:12:08.639Z,85.20
2018-02-09T05:14:35.438Z,85.70
2018-02-09T05:17:02.232Z,85.90
2018-02-09T05:19:29.010Z,85.80
2018-02-09T05:21:55.731Z,85.80
2018-02-09T05:24:22.836Z,85.50
2018-02-09T05:26:50.237Z,85.70
2018-02-09T05:29:16.786Z,85.50
2018-02-09T05:31:43.711Z,85.10
2018-02-09T05:34:10.185Z,85.20
2018-02-09T05:36:36.735Z,85.10
2018-02-09T05:39:03.587Z,84.60
2018-02-09T05:41:30.059Z,84.70
2018-02-09T05:43:58.970Z,84.50
2018-02-09T05:46:25.626Z,84.40
2018-02-09T05:48:52.540Z,84.40
2018-02-09T05:51:18.972Z,84.40
2018-02-09T05:53:47.877Z,83.90
2018-02-09T05:56:14.812Z,83.40
2018-02-09T05:58:46.020Z,83.10
2018-02-09T06:01:12.502Z,81.90
2018-02-09T06:03:41.187Z,80.70
2018-02-09T06:06:07.760Z,79.00
2018-02-09T06:08:34.247Z,76.70
2018-02-09T06:11:00.645Z,74.20
2018-02-09T06:13:27.643Z,72.70
2018-02-09T06:15:54.679Z,70.60
2018-02-09T06:18:22.246Z,69.60
2018-02-09T06:20:48.804Z,68.40
2018-02-09T06:23:15.436Z,68.10
2018-02-09T06:25:42.473Z,67.70
2018-02-09T06:28:09.220Z,69.30
2018-02-09T06:30:46.097Z,69.20
2018-02-09T06:33:12.496Z,67.80
2018-02-09T06:35:39.659Z,65.20
2018-02-09T06:38:06.197Z,62.90
2018-02-09T06:40:32.798Z,63.00
2018-02-09T06:43:00.496Z,63.50
2018-02-09T06:45:29.181Z,63.50
2018-02-09T06:47:56.323Z,65.00
2018-02-09T06:50:24.707Z,63.40
2018-02-09T06:52:51.252Z,61.70
2018-02-09T06:55:17.747Z,59.80
2018-02-09T06:57:51.175Z,56.80
2018-02-09T07:00:18.292Z,54.50
2018-02-09T07:02:45.460Z,53.00
2018-02-09T07:05:14.064Z,50.20
2018-02-09T07:07:40.577Z,50.50
2018-02-09T07:10:07.148Z,48.90
2018-02-09T07:12:33.707Z,48.00
2018-02-09T07:15:00.261Z,48.10
2018-02-09T07:17:28.000Z,48.50
2018-02-09T07:19:54.458Z,48.70
2018-02-09T07:22:21.041Z,49.10
2018-02-09T07:24:49.752Z,49.40
2018-02-09T07:27:16.305Z,51.00
2018-02-09T07:29:42.762Z,51.60
2018-02-09T07:32:09.404Z,50.80
2018-02-09T07:34:37.075Z,50.80
2018-02-09T07:37:03.680Z,51.80
2018-02-09T07:39:31.440Z,53.40
2018-02-09T07:41:58.008Z,53.50
2018-02-09T07:44:25.657Z,52.10
2018-02-09T07:46:52.731Z,51.50
2018-02-09T07:49:19.429Z,53.80
2018-02-09T07:51:47.122Z,56.20
2018-02-09T07:54:13.652Z,57.80
2018-02-09T07:56:40.437Z,58.60
2018-02-09T07:59:07.421Z,59.70
2018-02-09T08:01:33.877Z,61.30
2018-02-09T08:04:00.514Z,63.20
2018-02-09T08:06:30.657Z,65.20
2018-02-09T08:08:57.211Z,65.80
2018-02-09T08:13:51.777Z,67.00
2018-02-09T08:16:20.171Z,67.40
2018-02-09T08:18:46.691Z,67.90
2018-02-09T08:21:13.279Z,68.10
2018-02-09T08:23:40.177Z,66.50
2018-02-09T08:26:07.237Z,62.00
2018-02-09T08:28:34.108Z,57.80
2018-02-09T08:31:01.210Z,52.90
2018-02-09T08:33:31.415Z,50.30
2018-02-09T08:35:57.991Z,48.50
2018-02-09T08:38:24.900Z,46.70
2018-02-09T08:40:52.678Z,44.70
2018-02-09T08:43:20.347Z,43.00
2018-02-09T08:45:50.864Z,42.40
2018-02-09T08:48:17.738Z,41.50
2018-02-09T08:50:44.292Z,40.20
2018-02-09T08:53:11.085Z,38.00
2018-02-09T08:55:41.127Z,38.60
2018-02-09T08:58:07.592Z,38.70
2018-02-09T09:00:34.344Z,38.50
2018-02-09T09:03:00.897Z,36.40
2018-02-09T09:05:27.744Z,36.10
2018-02-09T09:07:54.352Z,34.40
2018-02-09T09:10:20.831Z,33.50
2018-02-09T09:12:47.361Z,33.70
2018-02-09T09:15:14.248Z,33.80
2018-02-09T09:17:41.029Z,34.00
2018-02-09T09:20:07.484Z,33.60
2018-02-09T09:22:34.414Z,33.50
2018-02-09T09:25:00.963Z,35.30
2018-02-09T09:27:27.848Z,36.40
2018-02-09T09:29:54.390Z,37.20
2018-02-09T09:32:21.282Z,37.60
2018-02-09T09:34:48.624Z,37.30
2018-02-09T09:37:15.454Z,35.90
2018-02-09T09:39:41.856Z,34.20
2018-02-09T09:42:08.849Z,33.00
2018-02-09T09:44:35.387Z,33.10
2018-02-09T09:47:01.912Z,33.20
2018-02-09T09:49:28.880Z,32.50
2018-02-09T09:51:55.252Z,33.10
2018-02-09T09:54:22.775Z,32.20
2018-02-09T09:56:49.308Z,31.90
2018-02-09T09:59:16.767Z,31.80
2018-02-09T10:01:43.640Z,32.30
2018-02-09T10:04:10.172Z,32.20
2018-02-09T10:06:36.612Z,32.90
2018-02-09T10:09:03.267Z,32.80
2018-02-09T10:11:31.033Z,31.80
2018-02-09T10:13:57.512Z,32.70
2018-02-09T10:16:26.207Z,32.30
2018-02-09T10:18:52.789Z,33.30
2018-02-09T10:21:22.984Z,32.10
2018-02-09T10:23:51.070Z,32.70
2018-02-09T10:26:17.472Z,33.30
2018-02-09T10:28:44.683Z,32.60
2018-02-09T10:31:11.539Z,31.40
2018-02-09T10:33:38.734Z,30.60
2018-02-09T10:36:05.183Z,31.80
2018-02-09T10:38:31.815Z,31.90
2018-02-09T10:40:58.649Z,32.50
2018-02-09T10:43:25.431Z,32.70
2018-02-09T10:45:51.976Z,32.50
2018-02-09T10:48:18.821Z,32.90
2018-02-09T10:50:45.699Z,31.30
2018-02-09T10:53:12.197Z,32.10
2018-02-09T10:55:38.714Z,31.70
2018-02-09T10:58:05.307Z,32.10
2018-02-09T11:00:38.733Z,32.40
2018-02-09T11:03:05.705Z,32.40
2018-02-09T11:05:34.396Z,32.30
2018-02-09T11:08:00.926Z,32.10
2018-02-09T11:10:32.960Z,33.20
2018-02-09T11:13:06.343Z,32.80
2018-02-09T11:15:32.827Z,34.00
2018-02-09T11:17:59.339Z,34.30
2018-02-09T11:20:26.614Z,33.80
2018-02-09T11:22:55.183Z,34.40
2018-02-09T11:25:22.023Z,34.50
2018-02-09T11:27:50.831Z,34.20
2018-02-09T11:30:18.527Z,35.10
2018-02-09T11:32:49.331Z,35.70
2018-02-09T11:35:16.212Z,36.80
2018-02-09T11:37:42.687Z,38.40
2018-02-09T11:40:11.779Z,38.50
2018-02-09T11:42:38.835Z,39.10
2018-02-09T11:45:05.738Z,39.90
2018-02-09T11:47:32.217Z,40.10
2018-02-09T11:49:58.767Z,40.40
2018-02-09T11:52:25.588Z,40.50
2018-02-09T11:54:52.226Z,41.20
2018-02-09T11:57:19.886Z,40.00
2018-02-09T11:59:46.485Z,41.50
2018-02-09T12:02:15.138Z,41.00
2018-02-09T12:04:41.967Z,41.00
2018-02-09T12:07:12.303Z,42.30
2018-02-09T12:09:39.326Z,42.30
2018-02-09T12:12:08.160Z,43.20
2018-02-09T12:14:34.919Z,43.10
2018-02-09T12:17:01.303Z,42.30
2018-02-09T12:19:27.919Z,42.10
2018-02-09T12:21:54.465Z,41.60
2018-02-09T12:24:23.151Z,41.70
2018-02-09T12:26:50.595Z,41.90
2018-02-09T12:29:19.089Z,42.40
2018-02-09T12:31:49.555Z,42.50
2018-02-09T12:34:16.067Z,42.60
2018-02-09T12:36:42.577Z,42.50
2018-02-09T12:39:11.575Z,42.70
2018-02-09T12:41:38.474Z,42.70
2018-02-09T12:44:05.260Z,43.30
2018-02-09T12:46:31.704Z,43.10
2018-02-09T12:48:58.645Z,43.00
2018-02-09T12:51:25.471Z,42.90
2018-02-09T12:53:52.016Z,43.20
2018-02-09T12:56:18.612Z,43.30
2018-02-09T12:58:46.022Z,43.70
2018-02-09T13:01:12.473Z,44.00
2018-02-09T13:03:39.387Z,44.50
2018-02-09T13:06:06.227Z,44.50
2018-02-09T13:08:32.767Z,45.00
2018-02-09T13:10:59.618Z,45.10
2018-02-09T13:13:26.447Z,45.20
2018-02-09T13:15:53.596Z,45.30
2018-02-09T13:18:32.309Z,45.10
2018-02-09T13:23:40.244Z,46.20
2018-02-09T13:26:06.787Z,46.70
2018-02-09T13:28:45.757Z,47.20
2018-02-09T13:31:13.101Z,47.40
2018-02-09T13:33:40.487Z,47.70
2018-02-09T13:36:07.698Z,47.90
2018-02-09T13:38:36.348Z,48.00
2018-02-09T13:41:02.928Z,48.10
2018-02-09T13:43:33.745Z,48.10
2018-02-09T13:46:01.766Z,48.00
2018-02-09T13:48:28.408Z,47.70
2018-02-09T13:50:55.830Z,48.30
2018-02-09T13:53:22.668Z,47.90
2018-02-09T13:55:49.504Z,48.70
2018-02-09T13:58:16.287Z,48.70
2018-02-09T14:00:43.214Z,49.00
2018-02-09T14:03:10.996Z,49.00
2018-02-09T14:05:37.517Z,49.50
2018-02-09T14:08:05.263Z,49.40
2018-02-09T14:10:36.087Z,48.90
2018-02-09T14:13:02.888Z,48.70
2018-02-09T14:15:29.778Z,48.70
2018-02-09T14:17:56.327Z,48.90
2018-02-09T14:20:24.079Z,49.30
2018-02-09T14:22:50.866Z,49.30
2018-02-09T14:25:17.400Z,49.30
2018-02-09T14:27:47.316Z,49.60
2018-02-09T14:30:13.902Z,49.90
2018-02-09T14:32:40.699Z,50.00
2018-02-09T14:35:07.523Z,49.70
2018-02-09T14:37:34.492Z,49.90
2018-02-09T14:40:02.156Z,49.90
2018-02-09T14:42:29.054Z,49.90
2018-02-09T14:44:55.602Z,50.40
2018-02-09T14:47:22.727Z,50.40
2018-02-09T14:49:49.599Z,51.10
2018-02-09T14:52:16.046Z,51.10
2018-02-09T14:54:43.837Z,51.60
2018-02-09T14:57:10.404Z,53.30
2018-02-09T14:59:38.439Z,52.00
2018-02-09T15:02:04.958Z,52.00
2018-02-09T15:07:00.245Z,53.00
2018-02-09T15:09:26.703Z,53.20
2018-02-09T15:11:53.294Z,53.30
2018-02-09T15:14:23.248Z,53.80
2018-02-09T15:16:49.687Z,53.80
2018-02-09T15:19:16.127Z,54.00
2018-02-09T15:21:46.493Z,53.90
2018-02-09T15:24:13.051Z,54.30
2018-02-09T15:26:39.507Z,54.60
2018-02-09T15:29:06.379Z,55.10
2018-02-09T15:31:33.263Z,55.60
2018-02-09T15:34:03.754Z,56.10
2018-02-09T15:36:30.608Z,56.90
2018-02-09T15:38:57.859Z,57.50
2018-02-09T15:41:25.560Z,57.80
2018-02-09T15:43:53.247Z,58.40
2018-02-09T15:46:20.155Z,59.40
2018-02-09T15:48:46.944Z,59.90
2018-02-09T15:51:13.807Z,60.20
2018-02-09T15:53:40.301Z,60.40
2018-02-09T15:56:10.363Z,60.70
2018-02-09T15:58:37.708Z,61.10
2018-02-09T16:01:05.148Z,61.40
2018-02-09T16:03:34.158Z,61.90
2018-02-09T16:06:00.755Z,62.20
2018-02-09T16:08:27.224Z,62.50
2018-02-09T16:10:54.061Z,62.50
2018-02-09T16:13:20.947Z,62.80
2018-02-09T16:15:50.261Z,62.60
2018-02-09T16:18:16.790Z,63.00
2018-02-09T16:20:47.325Z,62.90
2018-02-09T16:23:13.888Z,63.50
2018-02-09T16:25:41.307Z,63.40
2018-02-09T16:28:08.165Z,63.70
2018-02-09T16:30:35.064Z,63.60
2018-02-09T16:33:02.148Z,63.50
2018-02-09T16:35:28.607Z,63.40
2018-02-09T16:37:56.435Z,63.80
2018-02-09T16:40:26.904Z,63.60
2018-02-09T16:42:55.664Z,63.60
2018-02-09T16:45:23.360Z,63.40
2018-02-09T16:47:52.167Z,63.60
2018-02-09T16:50:19.195Z,63.50
2018-02-09T16:52:45.775Z,63.60
2018-02-09T16:55:12.632Z,63.30
2018-02-09T17:00:27.208Z,64.20
2018-02-09T17:02:58.370Z,64.40
2018-02-09T17:05:26.213Z,65.10
2018-02-09T17:07:53.201Z,65.20
2018-02-09T17:10:19.751Z,65.30
2018-02-09T17:12:47.251Z,65.70
2018-02-09T17:15:14.041Z,65.80
2018-02-09T17:17:41.009Z,66.00
2018-02-09T17:20:07.480Z,65.50
2018-02-09T17:22:33.955Z,65.70
2018-02-09T17:25:02.095Z,65.90
2018-02-09T17:27:29.539Z,66.30
2018-02-09T17:30:00.080Z,66.70
2018-02-09T17:32:26.613Z,66.10
2018-02-09T17:34:53.072Z,66.60
2018-02-09T17:37:19.976Z,66.70
2018-02-09T17:39:47.395Z,66.90
2018-02-09T17:42:14.335Z,67.30
2018-02-09T17:44:42.976Z,67.50
2018-02-09T17:47:09.745Z,67.50
2018-02-09T17:49:36.314Z,68.00
2018-02-09T17:52:02.842Z,67.70
2018-02-09T17:54:30.300Z,67.90
2018-02-09T17:56:56.816Z,68.20
2018-02-09T17:59:23.453Z,68.40
2018-02-09T18:01:49.862Z,68.30
2018-02-09T18:04:16.433Z,68.80
2018-02-09T18:06:48.246Z,69.00
2018-02-09T18:09:15.071Z,69.10
2018-02-09T18:11:43.147Z,68.90
2018-02-09T18:14:09.927Z,69.20
2018-02-09T18:16:36.852Z,69.40
2018-02-09T18:19:03.308Z,69.50
2018-02-09T18:21:30.156Z,69.70
2018-02-09T18:23:56.698Z,69.60
2018-02-09T18:26:25.360Z,69.60
2018-02-09T18:28:51.932Z,69.50
2018-02-09T18:31:18.780Z,69.80
2018-02-09T18:33:45.703Z,70.00
2018-02-09T18:36:12.747Z,70.30
2018-02-09T18:38:39.343Z,70.10
2018-02-09T18:41:06.175Z,70.20
2018-02-09T18:43:32.736Z,70.10
2018-02-09T18:46:00.213Z,70.50
2018-02-09T18:48:29.880Z,70.70
2018-02-09T18:51:00.313Z,71.10
2018-02-09T18:53:27.155Z,71.20
2018-02-09T18:55:53.612Z,71.10
2018-02-09T18:58:20.161Z,71.20
2018-02-09T19:00:47.007Z,71.40
2018-02-09T19:03:15.192Z,71.50
2018-02-09T19:05:43.136Z,71.40
2018-02-09T19:08:10.053Z,71.40
2018-02-09T19:10:40.278Z,71.70
2018-02-09T19:13:07.384Z,71.90
2018-02-09T19:15:33.986Z,72.20
2018-02-09T19:18:01.659Z,72.40
2018-02-09T19:20:28.566Z,72.00
2018-02-09T19:22:55.348Z,71.90
2018-02-09T19:25:22.321Z,72.30
2018-02-09T19:27:52.768Z,72.60
2018-02-09T19:30:19.561Z,72.60
2018-02-09T19:32:46.097Z,72.70
2018-02-09T19:35:14.852Z,72.90
2018-02-09T19:37:41.311Z,73.50
2018-02-09T19:40:08.765Z,73.20
2018-02-09T19:45:25.115Z,73.70
2018-02-09T19:47:51.719Z,73.50
2018-02-09T19:50:18.258Z,73.30
2018-02-09T19:52:44.864Z,73.60
2018-02-09T19:55:12.255Z,73.70
2018-02-09T19:57:39.085Z,73.40
2018-02-09T20:00:09.063Z,73.30
2018-02-09T20:02:35.840Z,73.10
2018-02-09T20:05:02.701Z,73.00
2018-02-09T20:07:29.279Z,73.00
2018-02-09T20:09:56.067Z,73.20
2018-02-09T20:12:23.264Z,73.40
2018-02-09T20:14:51.971Z,73.70
2018-02-09T20:17:18.762Z,73.70
2018-02-09T20:19:45.299Z,74.00
2018-02-09T20:22:11.820Z,74.30
2018-02-09T20:24:38.373Z,74.40
2018-02-09T20:27:05.815Z,74.80
2018-02-09T20:29:32.388Z,74.90
2018-02-09T20:32:01.821Z,75.00
2018-02-09T20:34:28.835Z,75.10
2018-02-09T20:36:55.390Z,75.40
2018-02-09T20:39:22.164Z,75.50
2018-02-09T20:41:49.009Z,76.00
2018-02-09T20:44:15.545Z,75.90
2018-02-09T20:46:42.127Z,75.60
2018-02-09T20:49:08.996Z,75.90
2018-02-09T20:51:36.079Z,76.00
2018-02-09T20:54:02.709Z,76.20
2018-02-09T20:56:30.364Z,76.20
2018-02-09T20:58:56.910Z,76.20
2018-02-09T21:01:23.807Z,76.50
2018-02-09T21:03:50.383Z,76.40
2018-02-09T21:06:16.830Z,76.40
2018-02-09T21:08:43.358Z,76.40
2018-02-09T21:11:09.885Z,76.30
2018-02-09T21:13:36.485Z,76.50
2018-02-09T21:16:03.275Z,76.60
2018-02-09T21:18:32.017Z,76.60
2018-02-09T21:20:58.928Z,76.60
2018-02-09T21:23:26.012Z,76.80
2018-02-09T21:25:53.149Z,76.90
2018-02-09T21:28:20.005Z,76.90
2018-02-09T21:30:47.722Z,76.70
2018-02-09T21:33:15.155Z,76.80
2018-02-09T21:35:41.770Z,76.80
2018-02-09T21:38:09.455Z,76.70
2018-02-09T21:40:36.083Z,76.80
2018-02-09T21:43:03.822Z,76.60
2018-02-09T21:45:31.590Z,76.90
2018-02-09T21:47:58.059Z,77.00
2018-02-09T21:50:25.257Z,77.30
2018-02-09T21:52:56.119Z,77.40
2018-02-09T21:55:22.573Z,77.40
2018-02-09T21:57:49.420Z,77.70
2018-02-09T22:00:15.941Z,77.70
2018-02-09T22:02:42.542Z,77.60
2018-02-09T22:05:09.366Z,77.80
2018-02-09T22:07:35.865Z,78.10
2018-02-09T22:10:02.507Z,77.90
2018-02-09T22:12:32.611Z,77.90
2018-02-09T22:14:59.140Z,78.10
2018-02-09T22:17:26.076Z,77.90
2018-02-09T22:19:52.528Z,77.30
2018-02-09T22:22:19.499Z,77.60
2018-02-09T22:24:46.607Z,77.70
2018-02-09T22:27:13.078Z,77.70
2018-02-09T22:29:41.152Z,77.60
2018-02-09T22:32:09.816Z,77.80
2018-02-09T22:34:37.380Z,77.90
2018-02-09T22:37:03.865Z,77.90
2018-02-09T22:39:30.346Z,77.90
2018-02-09T22:41:57.243Z,77.80
2018-02-09T22:44:23.723Z,77.80
2018-02-09T22:46:50.635Z,78.10
2018-02-09T22:49:18.335Z,78.00
2018-02-09T22:51:44.940Z,78.00
2018-02-09T22:54:11.397Z,77.90
2018-02-09T22:56:37.923Z,78.20
2018-02-09T22:59:04.471Z,78.20
2018-02-09T23:01:35.673Z,77.90
2018-02-09T23:04:03.492Z,77.90
2018-02-09T23:06:30.907Z,77.50
2018-02-09T23:08:58.656Z,77.00
2018-02-09T23:11:29.191Z,76.50
2018-02-09T23:13:56.697Z,76.60
2018-02-09T23:16:26.204Z,76.40
2018-02-09T23:18:52.736Z,76.20
2018-02-09T23:21:19.319Z,76.20
2018-02-09T23:23:45.800Z,76.00
2018-02-09T23:26:12.380Z,75.70
2018-02-09T23:28:39.224Z,75.60
2018-02-09T23:31:06.944Z,75.70
2018-02-09T23:33:35.682Z,75.90
2018-02-09T23:36:02.527Z,76.00
2018-02-09T23:38:29.281Z,75.80
2018-02-09T23:40:55.842Z,76.00
2018-02-09T23:43:22.348Z,76.00
2018-02-09T23:45:49.224Z,75.90
2018-02-09T23:48:16.065Z,75.70
2018-02-09T23:50:42.651Z,75.60
2018-02-09T23:53:09.132Z,75.30
2018-02-09T23:55:35.967Z,75.50
2018-02-09T23:58:02.592Z,75.70
